Time;durP1;ratioP1;P1;durP2;ratioP2;P2;SDS_P1;SDS_P2;PMS_P1;PMS_P2;Temp;Humidity;BMP_temperature;BMP_pressure;BME280_temperature;BME280_humidity;BME280_pressure;Samples;Min_cycle;Max_cycle;Signal;HPM_P1;HPM_P2
2023/09/22 00:00:10;;;;;;;1.23;0.98;;;;;;;18.51;100.00;99599.06;6180317;28;20226;-79
2023/09/22 00:03:32;;;;;;;1.63;1.52;;;;;;;18.29;100.00;99600.44;6178849;28;20226;-80
2023/09/22 00:06:54;;;;;;;2.15;1.48;;;;;;;18.28;100.00;99596.00;6176913;28;20222;-81
2023/09/22 00:10:15;;;;;;;3.45;1.40;;;;;;;17.99;100.00;99602.84;6163893;28;20226;-80
2023/09/22 00:13:36;;;;;;;2.88;1.23;;;;;;;17.81;100.00;99613.59;6174285;28;20607;-69
2023/09/22 00:16:57;;;;;;;2.20;1.33;;;;;;;17.80;100.00;99632.88;6170720;28;20248;-68
2023/09/22 00:20:18;;;;;;;2.13;1.65;;;;;;;17.75;100.00;99621.81;6173236;28;20242;-68
2023/09/22 00:23:40;;;;;;;2.08;1.60;;;;;;;17.74;100.00;99625.56;6176131;28;20233;-68
2023/09/22 00:27:02;;;;;;;2.70;1.77;;;;;;;17.51;100.00;99624.13;6173560;28;20249;-69
2023/09/22 00:30:23;;;;;;;3.38;1.98;;;;;;;17.59;100.00;99633.97;6173308;28;20272;-68
2023/09/22 00:33:44;;;;;;;2.08;1.88;;;;;;;17.55;100.00;99619.94;6173211;28;20564;-68
2023/09/22 00:37:05;;;;;;;2.67;2.28;;;;;;;17.67;100.00;99620.13;6174353;28;20230;-68
2023/09/22 00:40:27;;;;;;;1.85;1.75;;;;;;;17.50;100.00;99625.16;6186286;28;20225;-68
2023/09/22 00:43:48;;;;;;;3.20;2.20;;;;;;;17.58;100.00;99615.09;6171535;28;20798;-68
2023/09/22 00:47:13;;;;;;;2.83;2.60;;;;;;;17.34;100.00;99614.69;6161438;28;20339;-68
2023/09/22 00:50:34;;;;;;;3.97;3.17;;;;;;;17.29;100.00;99617.19;6174539;28;20221;-68
2023/09/22 00:53:55;;;;;;;3.42;3.13;;;;;;;17.38;100.00;99604.19;6172940;28;20267;-68
2023/09/22 00:57:18;;;;;;;2.67;2.47;;;;;;;17.63;100.00;99599.78;6176051;28;20222;-68
2023/09/22 01:00:41;;;;;;;3.33;3.03;;;;;;;17.41;100.00;99603.78;6176304;28;20241;-68
2023/09/22 01:04:02;;;;;;;4.15;3.60;;;;;;;17.36;100.00;99611.72;6176534;28;20238;-67
2023/09/22 01:07:23;;;;;;;3.40;3.10;;;;;;;17.43;100.00;99616.16;6191351;28;20258;-68
2023/09/22 01:10:44;;;;;;;4.80;3.70;;;;;;;17.70;100.00;99616.13;6178671;28;20548;-67
2023/09/22 01:14:06;;;;;;;4.28;3.88;;;;;;;17.50;100.00;99625.16;6167946;28;20308;-67
2023/09/22 01:17:27;;;;;;;3.10;2.80;;;;;;;17.43;100.00;99646.13;6176245;28;20222;-68
2023/09/22 01:20:48;;;;;;;3.50;3.10;;;;;;;17.36;100.00;99638.97;6177491;28;20743;-68
2023/09/22 01:24:12;;;;;;;4.50;3.87;;;;;;;17.49;100.00;99634.41;6175292;28;20229;-68
2023/09/22 01:27:32;;;;;;;5.22;4.82;;;;;;;17.30;100.00;99634.38;6179991;28;20238;-68
2023/09/22 01:30:53;;;;;;;4.03;3.72;;;;;;;17.52;100.00;99652.25;6176294;28;20234;-68
2023/09/22 01:34:15;;;;;;;4.30;4.00;;;;;;;17.56;100.00;99645.31;6178841;28;20544;-68
2023/09/22 01:37:40;;;;;;;3.90;3.60;;;;;;;17.29;100.00;99646.34;6175456;28;20321;-68
2023/09/22 01:41:02;;;;;;;3.88;3.58;;;;;;;17.39;100.00;99652.19;6167896;28;20230;-68
2023/09/22 01:44:25;;;;;;;3.33;2.95;;;;;;;17.42;100.00;99644.44;6190760;28;20230;-68
2023/09/22 01:47:45;;;;;;;3.55;3.15;;;;;;;17.15;100.00;99653.66;6171708;28;20627;-67
2023/09/22 01:51:06;;;;;;;3.17;2.88;;;;;;;17.31;100.00;99650.50;6183141;28;20234;-67
2023/09/22 01:54:27;;;;;;;3.60;3.30;;;;;;;17.33;100.00;99663.94;6162880;28;22363;-67
2023/09/22 01:57:50;;;;;;;2.88;2.50;;;;;;;17.50;100.00;99676.94;6176637;28;20238;-68
2023/09/22 02:01:12;;;;;;;3.85;2.80;;;;;;;17.59;100.00;99683.03;6177844;28;20560;-68
2023/09/22 02:04:33;;;;;;;2.00;1.90;;;;;;;17.29;100.00;99692.66;6174521;28;20604;-68
2023/09/22 02:07:54;;;;;;;2.45;1.55;;;;;;;17.15;100.00;99710.00;6173285;28;20225;-69
2023/09/22 02:11:16;;;;;;;1.90;1.80;;;;;;;17.21;100.00;99703.75;6162763;28;20230;-68
2023/09/22 02:14:38;;;;;;;1.70;1.60;;;;;;;17.19;100.00;99705.84;6174565;28;20229;-68
2023/09/22 02:17:59;;;;;;;1.63;1.50;;;;;;;17.26;100.00;99696.63;6173089;28;22557;-68
2023/09/22 02:21:20;;;;;;;3.70;2.63;;;;;;;17.05;100.00;99701.41;6178619;28;20238;-68
2023/09/22 02:24:41;;;;;;;2.00;1.27;;;;;;;17.13;100.00;99712.94;6178905;28;20230;-68
2023/09/22 02:28:03;;;;;;;1.90;1.73;;;;;;;16.94;100.00;99689.22;6164385;28;20321;-68
2023/09/22 02:31:27;;;;;;;2.53;2.15;;;;;;;17.13;100.00;99701.19;6174962;28;20509;-69
2023/09/22 02:34:48;;;;;;;1.95;1.55;;;;;;;17.02;100.00;99705.38;6171989;28;20595;-68
2023/09/22 02:38:11;;;;;;;2.63;1.73;;;;;;;16.85;100.00;99714.13;6177696;28;20312;-69
2023/09/22 02:41:33;;;;;;;1.25;1.15;;;;;;;16.93;100.00;99703.91;6177678;28;20226;-68
2023/09/22 02:44:54;;;;;;;1.75;1.50;;;;;;;16.96;100.00;99706.19;6175028;28;20233;-68
2023/09/22 02:48:16;;;;;;;1.33;0.93;;;;;;;16.83;100.00;99711.63;6176127;28;20257;-68
2023/09/22 02:51:37;;;;;;;1.10;1.05;;;;;;;16.73;100.00;99706.56;6179395;28;20246;-67
2023/09/22 02:54:58;;;;;;;1.10;1.00;;;;;;;16.62;100.00;99718.03;6175007;28;20234;-67
2023/09/22 02:58:19;;;;;;;0.90;0.90;;;;;;;16.60;100.00;99735.63;6186967;28;20576;-67
2023/09/22 03:01:41;;;;;;;0.90;0.90;;;;;;;16.70;100.00;99741.50;6174531;28;20252;-68
2023/09/22 03:08:47;;;;;;;0.90;0.90;;;;;;;16.51;100.00;99731.38;6009038;29;20242;-69
2023/09/22 03:12:08;;;;;;;2.20;1.13;;;;;;;16.63;100.00;99733.31;6011630;29;20282;-68
2023/09/22 03:15:29;;;;;;;2.77;1.47;;;;;;;16.52;100.00;99739.31;6016516;29;20241;-68
2023/09/22 03:18:49;;;;;;;0.80;0.80;;;;;;;16.42;100.00;99747.00;6011322;29;20332;-68
2023/09/22 03:22:10;;;;;;;0.95;0.95;;;;;;;16.45;100.00;99743.03;6014306;29;20231;-68
2023/09/22 03:25:32;;;;;;;1.30;1.20;;;;;;;16.56;100.00;99748.75;6012044;29;20230;-68
2023/09/22 03:28:53;;;;;;;1.43;1.17;;;;;;;16.49;100.00;99763.34;6011630;29;20226;-68
2023/09/22 03:32:18;;;;;;;1.65;1.55;;;;;;;16.44;100.00;99761.22;6005940;29;20958;-69
2023/09/22 03:35:40;;;;;;;1.43;1.33;;;;;;;16.44;100.00;99761.22;5992232;29;20234;-69
2023/09/22 03:39:03;;;;;;;1.65;1.55;;;;;;;16.45;100.00;99752.03;6007476;29;20270;-68
2023/09/22 03:42:26;;;;;;;1.67;1.58;;;;;;;16.23;100.00;99744.19;5992179;29;20238;-68
2023/09/22 03:45:53;;;;;;;1.77;1.27;;;;;;;16.23;100.00;99736.03;6007278;29;20439;-68
2023/09/22 03:49:14;;;;;;;1.07;1.07;;;;;;;16.21;100.00;99741.63;6010911;29;20559;-68
2023/09/22 03:52:36;;;;;;;1.70;1.60;;;;;;;16.24;100.00;99732.25;6007055;29;20513;-68
2023/09/22 03:55:57;;;;;;;2.60;2.40;;;;;;;16.30;100.00;99732.28;6004616;29;20238;-68
2023/09/22 03:59:19;;;;;;;2.57;2.37;;;;;;;16.45;100.00;99729.44;6004028;29;20333;-68
2023/09/22 04:02:40;;;;;;;2.57;2.37;;;;;;;16.33;100.00;99731.06;6008304;29;20250;-68
2023/09/22 04:06:04;;;;;;;5.17;3.20;;;;;;;16.43;100.00;99721.47;6008353;29;21046;-69
2023/09/22 04:09:25;;;;;;;4.68;3.45;;;;;;;16.37;100.00;99724.16;6001672;29;20258;-67
2023/09/22 04:12:46;;;;;;;2.78;2.58;;;;;;;16.40;100.00;99732.75;6013909;29;20372;-68
2023/09/22 04:16:08;;;;;;;4.10;3.70;;;;;;;16.33;100.00;99745.50;6012008;29;20238;-67
2023/09/22 04:19:33;;;;;;;3.92;3.60;;;;;;;16.38;100.00;99744.88;6009928;29;20234;-67
2023/09/22 04:22:54;;;;;;;4.65;3.90;;;;;;;16.36;100.00;99755.09;5999782;29;20226;-69
2023/09/22 04:26:16;;;;;;;5.07;4.57;;;;;;;16.33;100.00;99737.34;6012472;29;20238;-68
2023/09/22 04:29:38;;;;;;;5.20;4.63;;;;;;;16.30;100.00;99726.00;6009583;29;20234;-68
2023/09/22 04:33:01;;;;;;;3.97;3.67;;;;;;;16.32;100.00;99745.69;6010181;29;20696;-68
2023/09/22 04:36:22;;;;;;;5.33;4.80;;;;;;;16.10;100.00;99754.97;6011167;29;20258;-69
2023/09/22 04:39:44;;;;;;;5.50;5.03;;;;;;;16.19;100.00;99751.06;6015630;29;20238;-67
2023/09/22 04:43:07;;;;;;;4.93;4.63;;;;;;;16.13;100.00;99744.53;6011317;29;20241;-67
2023/09/22 04:46:27;;;;;;;5.00;4.27;;;;;;;16.24;100.00;99746.69;6013459;29;20389;-68
2023/09/22 04:49:50;;;;;;;4.90;4.50;;;;;;;16.24;100.00;99756.72;6012991;29;20309;-68
2023/09/22 04:53:11;;;;;;;5.47;4.90;;;;;;;16.34;100.00;99759.91;6015357;29;20262;-67
2023/09/22 04:56:33;;;;;;;7.30;5.53;;;;;;;16.18;100.00;99750.22;6011122;29;20253;-68
2023/09/22 04:59:54;;;;;;;6.17;5.57;;;;;;;16.18;100.00;99747.50;6017909;29;20254;-69
2023/09/22 05:03:15;;;;;;;5.90;5.40;;;;;;;16.22;100.00;99759.66;6010418;29;20231;-68
2023/09/22 05:06:37;;;;;;;6.93;6.33;;;;;;;16.15;100.00;99779.66;6013739;29;20249;-68
2023/09/22 05:09:59;;;;;;;6.27;5.70;;;;;;;16.22;100.00;99767.81;6016423;29;20241;-68
2023/09/22 05:13:20;;;;;;;6.40;5.80;;;;;;;16.15;100.00;99775.06;6010434;29;20238;-68
2023/09/22 05:16:42;;;;;;;7.53;6.00;;;;;;;16.13;100.00;99768.16;6011411;29;20234;-68
2023/09/22 05:20:04;;;;;;;6.77;6.13;;;;;;;16.17;100.00;99778.44;5990311;29;20674;-68
2023/09/22 05:23:26;;;;;;;8.60;7.07;;;;;;;16.25;100.00;99766.56;6011073;29;20253;-68
2023/09/22 05:26:47;;;;;;;7.07;6.00;;;;;;;16.19;100.00;99764.66;6018199;29;20624;-68
2023/09/22 05:30:13;;;;;;;7.23;6.53;;;;;;;16.24;100.00;99765.72;6005592;29;20623;-69
2023/09/22 05:33:35;;;;;;;6.57;5.97;;;;;;;16.20;100.00;99772.59;6004753;29;20235;-68
2023/09/22 05:36:56;;;;;;;7.43;6.73;;;;;;;16.21;100.00;99778.91;6006131;29;20540;-69
2023/09/22 05:40:19;;;;;;;6.73;6.13;;;;;;;16.19;100.00;99800.00;6011289;29;20234;-68
2023/09/22 05:43:40;;;;;;;6.73;6.07;;;;;;;16.00;100.00;99807.81;6004750;29;20250;-67
2023/09/22 05:47:01;;;;;;;17.30;6.60;;;;;;;16.11;100.00;99794.69;6012580;29;20661;-68
2023/09/22 05:50:23;;;;;;;7.37;6.33;;;;;;;16.22;100.00;99792.28;6005839;29;20317;-67
2023/09/22 05:53:44;;;;;;;8.30;7.33;;;;;;;16.19;100.00;99800.81;6009779;29;20247;-69
2023/09/22 05:57:06;;;;;;;6.20;5.67;;;;;;;16.29;100.00;99801.31;6009477;29;20235;-68
2023/09/22 06:00:31;;;;;;;7.83;7.07;;;;;;;16.16;100.00;99803.97;6007443;29;20243;-68
2023/09/22 06:03:51;;;;;;;11.97;6.40;;;;;;;16.30;100.00;99794.00;6008340;29;20238;-69
2023/09/22 06:07:14;;;;;;;6.90;6.17;;;;;;;16.28;100.00;99802.38;6014344;29;20254;-68
2023/09/22 06:10:35;;;;;;;6.70;6.10;;;;;;;16.34;100.00;99804.28;6010750;29;20631;-68
2023/09/22 06:13:57;;;;;;;8.07;6.80;;;;;;;16.46;100.00;99815.44;6012280;29;20235;-68
2023/09/22 06:17:18;;;;;;;6.10;5.50;;;;;;;16.55;100.00;99806.13;6008513;29;20353;-69
2023/09/22 06:20:39;;;;;;;6.33;5.77;;;;;;;16.59;100.00;99821.00;5990063;29;20234;-68
2023/09/22 06:24:00;;;;;;;5.80;5.23;;;;;;;16.67;100.00;99829.00;6013602;29;20234;-69
2023/09/22 06:27:21;;;;;;;7.77;6.93;;;;;;;16.52;100.00;99831.03;6011699;29;20239;-68
2023/09/22 06:30:45;;;;;;;6.50;5.90;;;;;;;16.44;100.00;99848.28;6011887;29;20254;-68
2023/09/22 06:34:07;;;;;;;7.63;7.00;;;;;;;16.30;100.00;99886.47;6010411;29;20253;-68
2023/09/22 06:37:27;;;;;;;6.60;6.00;;;;;;;16.21;100.00;99882.25;6012303;29;20484;-68
2023/09/22 06:40:50;;;;;;;10.73;5.80;;;;;;;16.18;100.00;99888.91;6013024;29;20230;-68
2023/09/22 06:44:11;;;;;;;6.07;5.57;;;;;;;16.17;100.00;99902.69;6012781;29;20293;-68
2023/09/22 06:47:35;;;;;;;6.88;6.28;;;;;;;16.37;100.00;99909.16;6015692;29;20565;-68
2023/09/22 06:50:57;;;;;;;8.00;5.88;;;;;;;16.54;100.00;99926.91;6014341;29;20612;-68
2023/09/22 06:54:19;;;;;;;13.17;7.13;;;;;;;16.43;99.35;99930.13;6010888;29;20305;-68
2023/09/22 06:57:40;;;;;;;6.70;5.72;;;;;;;16.19;100.00;99933.28;6001482;29;20258;-69
2023/09/22 07:01:08;;;;;;;6.23;5.70;;;;;;;16.38;99.59;99924.41;6002251;29;20240;-68
2023/09/22 07:04:33;;;;;;;5.47;4.50;;;;;;;16.53;98.99;99946.97;6007181;29;20229;-67
2023/09/22 07:07:54;;;;;;;4.43;4.03;;;;;;;16.54;97.84;99935.88;6011701;29;20238;-68
2023/09/22 07:11:15;;;;;;;5.63;5.07;;;;;;;16.37;97.46;99934.47;6016552;29;20238;-68
2023/09/22 07:14:37;;;;;;;6.33;5.73;;;;;;;16.36;97.92;99964.56;6016692;29;20239;-70
2023/09/22 07:17:58;;;;;;;5.63;5.03;;;;;;;16.28;98.11;99951.97;6010923;29;20234;-69
2023/09/22 07:21:21;;;;;;;4.63;4.23;;;;;;;16.33;97.27;99948.66;6014809;29;20235;-69
2023/09/22 07:24:42;;;;;;;5.63;4.53;;;;;;;16.54;96.70;99951.38;6020106;29;20749;-69
2023/09/22 07:28:04;;;;;;;5.50;5.00;;;;;;;16.60;96.28;99946.00;6020408;29;20341;-69
2023/09/22 07:31:28;;;;;;;6.47;5.87;;;;;;;16.79;94.78;99963.53;6009907;29;20326;-69
2023/09/22 07:34:49;;;;;;;6.73;6.00;;;;;;;16.26;94.75;99962.19;6018809;29;20499;-68
2023/09/22 07:38:11;;;;;;;4.33;4.03;;;;;;;16.44;95.08;99969.88;6004050;29;20235;-68
2023/09/22 07:41:35;;;;;;;8.37;5.10;;;;;;;16.35;94.98;99980.06;6014052;29;20246;-68
2023/09/22 07:44:56;;;;;;;5.27;4.50;;;;;;;16.34;95.00;99986.53;6009061;29;20231;-68
2023/09/22 07:48:17;;;;;;;6.20;4.83;;;;;;;16.45;94.79;99985.19;6014015;29;20242;-67
2023/09/22 07:51:38;;;;;;;7.83;4.17;;;;;;;16.95;93.15;99979.53;6014298;29;20238;-68
2023/09/22 07:55:01;;;;;;;7.23;4.00;;;;;;;16.65;92.96;99970.72;6015518;29;20629;-67
2023/09/22 07:58:22;;;;;;;5.53;4.97;;;;;;;16.53;92.99;99980.47;6006361;29;20238;-67
2023/09/22 08:01:43;;;;;;;5.60;4.80;;;;;;;16.51;92.77;99984.44;6011835;29;20552;-66
2023/09/22 08:05:04;;;;;;;5.00;4.60;;;;;;;16.73;92.89;99991.50;6014007;29;20230;-68
2023/09/22 08:08:25;;;;;;;4.47;4.03;;;;;;;16.56;92.93;99990.94;6008972;29;20242;-68
2023/09/22 08:11:48;;;;;;;5.03;4.43;;;;;;;16.71;92.11;100004.47;6013380;29;20317;-68
2023/09/22 08:15:09;;;;;;;4.40;4.03;;;;;;;16.71;91.93;100013.50;6010392;29;20243;-67
2023/09/22 08:18:37;;;;;;;6.30;3.73;;;;;;;16.50;92.30;100013.50;6006845;29;20585;-67
2023/09/22 08:21:58;;;;;;;4.88;4.38;;;;;;;16.54;91.65;99993.03;6015875;29;20257;-67
2023/09/22 08:25:20;;;;;;;3.27;2.97;;;;;;;16.76;91.17;99993.84;6013838;29;20688;-67
2023/09/22 08:28:42;;;;;;;4.00;3.60;;;;;;;16.81;90.56;100009.59;6015120;29;20554;-68
2023/09/22 08:32:04;;;;;;;3.80;3.40;;;;;;;16.85;89.93;100021.78;6001805;29;20234;-67
2023/09/22 08:35:25;;;;;;;4.90;3.13;;;;;;;16.88;90.40;100030.38;5989369;29;20230;-68
2023/09/22 08:38:47;;;;;;;4.17;3.60;;;;;;;16.65;89.55;100016.16;6011508;29;20348;-68
2023/09/22 08:42:09;;;;;;;4.23;3.77;;;;;;;17.27;88.53;99997.16;6011691;29;20235;-67
2023/09/22 08:45:31;;;;;;;4.18;3.75;;;;;;;17.63;87.67;99981.41;6006532;29;20242;-69
2023/09/22 08:48:53;;;;;;;4.82;3.72;;;;;;;17.38;86.24;99999.28;6010525;29;20234;-67
2023/09/22 08:52:14;;;;;;;4.70;2.77;;;;;;;17.46;85.15;100020.91;6016490;29;20583;-68
2023/09/22 08:55:35;;;;;;;3.58;3.17;;;;;;;16.87;86.06;100027.84;6015221;29;20258;-67
2023/09/22 08:58:56;;;;;;;3.47;3.17;;;;;;;17.13;85.87;100028.88;5992597;29;20325;-67
2023/09/22 09:02:19;;;;;;;4.50;3.80;;;;;;;16.96;85.94;100022.06;6009997;29;20238;-68
2023/09/22 09:05:40;;;;;;;3.85;2.72;;;;;;;17.22;84.81;100045.94;6010366;29;20254;-67
2023/09/22 09:09:04;;;;;;;4.60;2.90;;;;;;;17.45;85.20;100046.50;6014237;29;21585;-68
2023/09/22 09:12:25;;;;;;;2.90;2.60;;;;;;;17.50;83.63;100061.22;6011378;29;20250;-68
2023/09/22 09:15:49;;;;;;;4.87;3.53;;;;;;;17.32;84.12;100068.22;6003143;29;20329;-68
2023/09/22 09:19:15;;;;;;;2.60;2.40;;;;;;;17.37;84.05;100060.28;6008686;29;20242;-68
2023/09/22 09:22:37;;;;;;;2.03;1.85;;;;;;;17.34;82.83;100053.34;6020649;29;20234;-67
2023/09/22 09:25:58;;;;;;;3.47;2.45;;;;;;;17.33;82.94;100048.94;6012829;29;20231;-67
2023/09/22 09:29:27;;;;;;;2.10;2.00;;;;;;;17.11;82.79;100050.03;6017492;29;20254;-68
2023/09/22 09:32:47;;;;;;;2.30;2.10;;;;;;;17.20;82.62;100056.19;5998612;29;20254;-65
2023/09/22 09:36:16;;;;;;;1.77;1.60;;;;;;;17.45;81.86;100055.53;6018379;29;20230;-66
2023/09/22 09:39:44;;;;;;;4.68;2.30;;;;;;;17.17;81.78;100059.28;6012041;29;20230;-65
2023/09/22 09:43:10;;;;;;;2.90;2.30;;;;;;;17.36;80.75;100064.03;6000329;29;20242;-65
2023/09/22 09:46:33;;;;;;;2.00;1.80;;;;;;;17.86;78.45;100068.34;6019173;29;20562;-65
2023/09/22 09:49:55;;;;;;;3.20;1.80;;;;;;;17.71;78.52;100065.75;6019746;29;20234;-65
2023/09/22 09:53:31;;;;;;;3.65;2.08;;;;;;;17.45;78.50;100074.59;6016618;29;20276;-65
2023/09/22 09:56:52;;;;;;;2.67;2.13;;;;;;;17.61;77.98;100059.00;6009520;29;20234;-66
2023/09/22 10:00:19;;;;;;;2.30;2.10;;;;;;;17.65;77.11;100054.84;6014889;29;20436;-68
2023/09/22 10:03:42;;;;;;;3.40;1.60;;;;;;;17.80;76.28;100052.78;6016292;29;20234;-67
2023/09/22 10:07:04;;;;;;;2.22;2.03;;;;;;;18.35;75.11;100047.97;6017897;29;20317;-66
2023/09/22 10:10:28;;;;;;;4.10;2.63;;;;;;;18.80;73.76;100070.94;6018971;29;20866;-65
2023/09/22 10:13:49;;;;;;;2.80;2.15;;;;;;;18.75;73.55;100068.00;6017592;29;20326;-66
2023/09/22 10:17:21;;;;;;;2.05;1.75;;;;;;;18.56;73.57;100087.94;6012456;29;20557;-65
2023/09/22 10:20:44;;;;;;;1.90;1.67;;;;;;;17.96;75.18;100096.91;6003182;29;20230;-66
2023/09/22 10:24:23;;;;;;;2.58;2.28;;;;;;;17.86;76.11;100101.06;6016786;29;20249;-64
2023/09/22 10:27:55;;;;;;;1.65;1.55;;;;;;;18.10;75.83;100092.38;6012560;29;20235;-66
2023/09/22 10:31:17;;;;;;;2.55;1.83;;;;;;;18.46;74.16;100089.38;6015506;29;20246;-67
2023/09/22 10:34:49;;;;;;;4.85;2.17;;;;;;;17.58;75.54;100095.69;5995066;29;20246;-67
2023/09/22 10:38:10;;;;;;;5.20;2.00;;;;;;;17.89;75.81;100084.31;6009159;29;20222;-67
2023/09/22 10:41:32;;;;;;;2.08;1.23;;;;;;;18.42;74.63;100099.00;6003351;29;20242;-66
2023/09/22 10:45:03;;;;;;;1.42;1.10;;;;;;;18.27;74.20;100104.63;6014596;29;20493;-66
2023/09/22 10:48:23;;;;;;;3.60;1.27;;;;;;;18.36;73.83;100103.38;6017498;29;20234;-66
2023/09/22 10:51:45;;;;;;;4.50;2.05;;;;;;;19.51;70.93;100096.59;6013710;29;20242;-66
2023/09/22 10:55:07;;;;;;;1.15;1.00;;;;;;;19.31;68.65;100100.38;6014575;29;20247;-66
2023/09/22 10:58:28;;;;;;;1.55;1.27;;;;;;;18.38;72.41;100098.53;6010773;29;20254;-65
2023/09/22 11:01:52;;;;;;;2.67;1.70;;;;;;;18.15;73.06;100100.78;6013292;29;20245;-65
2023/09/22 11:05:13;;;;;;;3.55;1.92;;;;;;;22.08;59.55;100086.47;6013666;29;20239;-66
2023/09/22 11:08:35;;;;;;;3.78;1.52;;;;;;;21.08;62.57;100090.41;6010393;29;20239;-66
2023/09/22 11:11:56;;;;;;;1.70;1.23;;;;;;;19.10;67.71;100102.28;6013221;29;20243;-66
2023/09/22 11:15:17;;;;;;;1.42;1.30;;;;;;;20.33;65.37;100115.94;6015318;29;20266;-66
2023/09/22 11:18:39;;;;;;;4.13;1.88;;;;;;;23.80;56.15;100093.50;6015158;29;20238;-66
2023/09/22 11:22:00;;;;;;;4.55;3.35;;;;;;;23.71;52.91;100103.22;6017310;29;20345;-65
2023/09/22 11:25:22;;;;;;;4.22;2.00;;;;;;;23.21;54.28;100123.97;6024582;29;20246;-65
2023/09/22 11:28:45;;;;;;;1.55;1.23;;;;;;;19.84;63.79;100130.19;6018848;29;20514;-65
2023/09/22 11:32:08;;;;;;;2.75;1.88;;;;;;;19.17;66.82;100144.09;6016148;29;20341;-66
2023/09/22 11:35:33;;;;;;;2.25;1.50;;;;;;;19.33;66.34;100140.13;6015462;29;20298;-66
2023/09/22 11:38:55;;;;;;;11.63;2.40;;;;;;;20.85;63.98;100124.91;6020014;29;20307;-65
2023/09/22 11:42:20;;;;;;;2.40;2.17;;;;;;;23.57;55.35;100132.03;6020689;29;20613;-66
2023/09/22 11:45:41;;;;;;;2.17;1.85;;;;;;;21.06;56.04;100130.06;6004024;29;20242;-66
2023/09/22 11:49:04;;;;;;;1.50;1.40;;;;;;;19.92;60.19;100131.88;6020148;29;20553;-65
2023/09/22 11:52:30;;;;;;;2.42;1.67;;;;;;;19.10;64.46;100136.97;6013421;29;20425;-66
2023/09/22 11:55:51;;;;;;;5.60;2.65;;;;;;;19.29;64.83;100144.31;6011807;29;20242;-66
2023/09/22 11:59:13;;;;;;;4.57;2.05;;;;;;;18.90;65.37;100145.13;6017530;29;20234;-66
2023/09/22 12:02:34;;;;;;;2.08;1.98;;;;;;;18.75;66.97;100138.19;6016284;29;20621;-65
2023/09/22 12:05:55;;;;;;;3.58;1.90;;;;;;;19.14;65.60;100144.53;6014501;29;20353;-66
2023/09/22 12:09:18;;;;;;;1.63;1.50;;;;;;;23.37;56.88;100137.06;6014743;29;20521;-67
2023/09/22 12:12:39;;;;;;;3.65;2.13;;;;;;;24.90;51.33;100146.56;6011178;29;20653;-67
2023/09/22 12:16:00;;;;;;;2.17;1.90;;;;;;;22.13;55.13;100160.75;6015389;29;20238;-67
2023/09/22 12:19:23;;;;;;;2.70;1.90;;;;;;;21.65;56.44;100154.25;6018954;29;20238;-68
2023/09/22 12:22:43;;;;;;;3.13;1.67;;;;;;;20.53;60.86;100165.13;6015533;29;20250;-68
2023/09/22 12:26:06;;;;;;;2.80;1.27;;;;;;;21.15;59.63;100169.88;6009259;29;20226;-68
2023/09/22 12:29:27;;;;;;;7.43;2.22;;;;;;;22.97;53.81;100174.47;6010070;29;20707;-68
2023/09/22 12:32:48;;;;;;;3.30;1.70;;;;;;;24.46;50.33;100172.09;6015337;29;20257;-68
2023/09/22 12:36:12;;;;;;;1.73;1.20;;;;;;;23.68;50.63;100172.50;6014895;29;20226;-68
2023/09/22 12:39:33;;;;;;;1.92;1.40;;;;;;;23.02;53.16;100169.97;6013408;29;20250;-68
2023/09/22 12:42:56;;;;;;;1.70;1.60;;;;;;;24.72;48.57;100155.00;6018390;29;20489;-68
2023/09/22 12:46:17;;;;;;;2.08;1.33;;;;;;;22.14;54.21;100162.41;6016709;29;20597;-68
2023/09/22 12:49:38;;;;;;;1.58;1.40;;;;;;;23.21;52.51;100151.47;6015443;29;20234;-68
2023/09/22 12:53:00;;;;;;;6.72;2.08;;;;;;;24.69;48.77;100157.41;6019994;29;20238;-68
2023/09/22 12:56:21;;;;;;;1.02;1.00;;;;;;;24.64;48.93;100176.63;6017016;29;20239;-69
2023/09/22 12:59:43;;;;;;;2.13;0.90;;;;;;;27.01;45.08;100167.47;6017054;29;20238;-69
2023/09/22 13:03:04;;;;;;;1.98;1.10;;;;;;;24.89;46.09;100161.44;6018022;29;20429;-69
2023/09/22 13:06:25;;;;;;;1.48;1.38;;;;;;;22.16;52.56;100161.13;6017184;29;20954;-67
2023/09/22 13:09:46;;;;;;;1.30;1.20;;;;;;;21.11;56.16;100161.22;6020759;29;20251;-67
2023/09/22 13:13:08;;;;;;;1.50;1.40;;;;;;;20.81;57.54;100157.41;6017852;29;20234;-68
2023/09/22 13:16:30;;;;;;;1.38;1.27;;;;;;;21.34;56.88;100150.50;6009617;29;20238;-68
2023/09/22 13:19:51;;;;;;;1.38;1.27;;;;;;;23.05;51.45;100158.47;6021937;29;20625;-68
2023/09/22 13:23:14;;;;;;;6.00;1.27;;;;;;;21.73;55.88;100152.06;6001610;29;20230;-68
2023/09/22 13:26:35;;;;;;;1.42;0.90;;;;;;;21.25;55.54;100154.59;6017526;29;20325;-67
2023/09/22 13:29:56;;;;;;;2.33;1.33;;;;;;;22.74;52.22;100153.22;6022708;29;20344;-68
2023/09/22 13:33:20;;;;;;;1.23;1.13;;;;;;;22.70;51.08;100173.16;6021783;29;20258;-68
2023/09/22 13:36:41;;;;;;;4.18;1.40;;;;;;;22.44;51.08;100157.00;6022090;29;20613;-68
2023/09/22 13:40:02;;;;;;;3.83;1.30;;;;;;;22.39;52.41;100170.56;6008973;29;20238;-69
2023/09/22 13:43:23;;;;;;;0.93;0.93;;;;;;;21.80;53.46;100152.81;6019219;29;20234;-68
2023/09/22 13:46:45;;;;;;;1.25;0.98;;;;;;;20.97;56.12;100147.81;6013527;29;20234;-68
2023/09/22 13:50:07;;;;;;;1.15;1.05;;;;;;;20.88;55.32;100155.44;6019928;29;20242;-68
2023/09/22 13:53:29;;;;;;;1.15;0.88;;;;;;;20.41;56.46;100153.19;6007931;29;20309;-68
2023/09/22 13:56:50;;;;;;;1.60;1.45;;;;;;;20.44;57.10;100164.53;6013245;29;20321;-68
2023/09/22 14:00:12;;;;;;;4.05;1.20;;;;;;;22.30;53.28;100163.72;6013193;29;20601;-67
2023/09/22 14:03:33;;;;;;;1.65;1.00;;;;;;;23.99;49.57;100157.53;6002581;29;20239;-67
2023/09/22 14:06:55;;;;;;;0.95;0.88;;;;;;;23.72;49.69;100161.84;6008515;29;20580;-68
2023/09/22 14:10:16;;;;;;;3.15;1.10;;;;;;;25.26;46.57;100146.09;6018538;29;20325;-68
2023/09/22 14:13:37;;;;;;;2.83;0.95;;;;;;;23.38;49.36;100155.25;6010448;29;20242;-66
2023/09/22 14:16:59;;;;;;;4.30;1.23;;;;;;;23.49;49.95;100148.91;6018069;29;20612;-67
2023/09/22 14:20:20;;;;;;;1.83;1.45;;;;;;;21.20;55.13;100143.47;6019958;29;20243;-67
2023/09/22 14:23:43;;;;;;;2.00;1.02;;;;;;;23.50;50.13;100130.50;6010118;29;20555;-69
2023/09/22 14:27:04;;;;;;;0.90;0.80;;;;;;;24.20;47.30;100125.81;6011267;29;20608;-68
2023/09/22 14:30:26;;;;;;;2.85;1.40;;;;;;;21.28;53.15;100129.47;6017209;29;20242;-68
2023/09/22 14:33:48;;;;;;;0.93;0.63;;;;;;;20.47;55.45;100139.47;6018394;29;20249;-68
2023/09/22 14:37:09;;;;;;;3.92;1.10;;;;;;;21.93;52.72;100143.66;6013323;29;20325;-69
2023/09/22 14:40:31;;;;;;;1.02;0.90;;;;;;;20.94;54.76;100140.88;6018020;29;20234;-68
2023/09/22 14:43:52;;;;;;;1.73;0.90;;;;;;;21.17;53.90;100149.38;6007615;29;20230;-67
2023/09/22 14:47:13;;;;;;;1.02;0.90;;;;;;;20.71;54.65;100144.16;6015855;29;20238;-67
2023/09/22 14:50:34;;;;;;;0.93;0.85;;;;;;;20.24;56.43;100149.25;6016554;29;20258;-67
2023/09/22 14:54:00;;;;;;;1.63;0.70;;;;;;;19.94;57.82;100163.41;6016499;29;20596;-67
2023/09/22 14:57:22;;;;;;;0.80;0.80;;;;;;;19.78;58.70;100171.22;6019110;29;20235;-67
2023/09/22 15:00:43;;;;;;;1.50;1.10;;;;;;;19.42;59.74;100171.69;6015160;29;20317;-67
2023/09/22 15:04:05;;;;;;;2.08;1.35;;;;;;;19.59;59.79;100167.47;6016295;29;20242;-67
2023/09/22 15:07:26;;;;;;;1.98;1.75;;;;;;;19.30;59.97;100167.88;6015337;29;20604;-67
2023/09/22 15:10:51;;;;;;;1.30;1.00;;;;;;;19.35;59.55;100189.13;6014692;29;20239;-67
2023/09/22 15:14:16;;;;;;;3.08;0.85;;;;;;;19.37;59.34;100195.25;6013784;29;20235;-67
2023/09/22 15:17:38;;;;;;;4.88;1.20;;;;;;;19.65;59.26;100193.97;6017878;29;20519;-67
2023/09/22 15:21:00;;;;;;;1.48;1.38;;;;;;;19.60;58.71;100193.78;6015538;29;20243;-67
2023/09/22 15:24:21;;;;;;;2.78;1.55;;;;;;;19.53;58.89;100197.53;6018946;29;20238;-67
2023/09/22 15:27:42;;;;;;;1.23;1.02;;;;;;;19.76;58.62;100200.69;6013698;29;20487;-67
2023/09/22 15:31:04;;;;;;;0.77;0.75;;;;;;;19.30;58.98;100203.41;6009224;29;20777;-68
2023/09/22 15:34:25;;;;;;;1.02;0.93;;;;;;;19.09;59.47;100211.78;6015829;29;20349;-68
2023/09/22 15:37:46;;;;;;;2.50;1.25;;;;;;;19.21;57.47;100220.22;6013187;29;20238;-68
2023/09/22 15:41:10;;;;;;;1.60;0.90;;;;;;;18.97;56.34;100225.22;6011199;29;20269;-67
2023/09/22 15:44:31;;;;;;;1.15;0.95;;;;;;;19.26;55.71;100224.00;6018190;29;20246;-67